createdAt,value
2018-12-02T00:00:37.731Z,81.23
2018-12-02T00:03:07.947Z,83.60
2018-12-02T00:05:36.591Z,87.90
2018-12-02T00:08:04.911Z,80.77
2018-12-02T00:10:32.977Z,79.13
2018-12-02T00:13:00.989Z,85.20
2018-12-02T00:15:29.601Z,83.80
2018-12-02T00:17:59.504Z,87.43
2018-12-02T00:20:27.716Z,89.50
2018-12-02T00:22:55.737Z,93.93
2018-12-02T00:25:23.776Z,86.97
2018-12-02T00:27:56.146Z,90.30
2018-12-02T00:30:28.193Z,93.73
2018-12-02T00:32:56.217Z,92.43
2018-12-02T00:35:24.308Z,87.93
2018-12-02T00:37:54.401Z,92.50
2018-12-02T00:40:22.966Z,96.33
2018-12-02T00:42:52.893Z,95.10
2018-12-02T00:45:22.159Z,94.93
2018-12-02T00:47:50.193Z,90.17
2018-12-02T00:50:18.782Z,93.57
2018-12-02T00:52:51.337Z,95.37
2018-12-02T00:55:21.521Z,93.77
2018-12-02T00:57:49.533Z,100.80
2018-12-02T01:00:17.631Z,99.47
2018-12-02T01:02:46.770Z,101.97
2018-12-02T01:05:15.799Z,106.30
2018-12-02T01:07:43.852Z,104.40
2018-12-02T01:10:14.251Z,102.00
2018-12-02T01:12:42.255Z,105.00
2018-12-02T01:15:12.459Z,102.87
2018-12-02T01:17:40.492Z,107.63
2018-12-02T01:20:11.053Z,107.03
2018-12-02T01:22:39.055Z,110.97
2018-12-02T01:25:09.057Z,111.97
2018-12-02T01:27:37.242Z,109.93
2018-12-02T01:30:23.228Z,105.90
2018-12-02T01:32:53.003Z,103.17
2018-12-02T01:35:21.003Z,109.10
2018-12-02T01:37:49.121Z,110.00
2018-12-02T01:40:19.135Z,110.90
2018-12-02T01:42:47.415Z,106.17
2018-12-02T01:45:17.285Z,113.20
2018-12-02T01:47:45.322Z,104.00
2018-12-02T01:50:15.294Z,106.23
2018-12-02T01:52:44.181Z,114.07
2018-12-02T01:55:12.197Z,103.67
2018-12-02T01:57:40.242Z,116.37
2018-12-02T02:00:15.953Z,118.43
2018-12-02T02:02:43.932Z,117.27
2018-12-02T02:05:12.075Z,112.60
2018-12-02T02:07:40.134Z,114.83
2018-12-02T02:10:10.458Z,109.50
2018-12-02T02:12:38.485Z,111.83
2018-12-02T02:15:07.761Z,107.83
2018-12-02T02:17:35.740Z,108.73
2018-12-02T02:20:04.892Z,109.43
2018-12-02T02:22:32.904Z,108.63
2018-12-02T02:25:00.861Z,107.63
2018-12-02T02:27:28.857Z,101.10
2018-12-02T02:29:56.938Z,107.43
2018-12-02T02:32:24.923Z,105.33
2018-12-02T02:34:52.938Z,102.57
2018-12-02T02:37:20.973Z,105.23
2018-12-02T02:39:48.960Z,101.20
2018-12-02T02:42:16.988Z,102.07
2018-12-02T02:47:19.534Z,96.97
2018-12-02T02:49:47.543Z,97.77
2018-12-02T02:52:15.568Z,103.43
2018-12-02T02:54:43.847Z,95.17
2018-12-02T02:57:11.852Z,101.73
2018-12-02T02:59:39.831Z,103.13
2018-12-02T03:02:07.885Z,100.40
2018-12-02T03:04:35.904Z,102.10
2018-12-02T03:07:03.926Z,97.97
2018-12-02T03:09:31.920Z,95.83
2018-12-02T03:11:59.914Z,100.30
2018-12-02T03:14:27.905Z,102.43
2018-12-02T03:16:55.886Z,99.53
2018-12-02T03:19:23.943Z,95.30
2018-12-02T03:21:51.924Z,97.67
2018-12-02T03:24:19.892Z,101.53
2018-12-02T03:26:47.905Z,100.13
2018-12-02T03:29:15.920Z,99.33
2018-12-02T03:31:43.931Z,97.53
2018-12-02T03:34:11.946Z,99.30
2018-12-02T03:36:39.914Z,99.43
2018-12-02T03:39:08.084Z,102.23
2018-12-02T03:41:36.089Z,101.43
2018-12-02T03:44:04.102Z,106.70
2018-12-02T03:46:32.069Z,102.43
2018-12-02T03:49:00.084Z,103.67
2018-12-02T03:51:28.033Z,102.97
2018-12-02T03:53:55.980Z,106.77
2018-12-02T03:56:23.963Z,102.47
2018-12-02T03:58:51.920Z,100.63
2018-12-02T04:01:19.890Z,105.23
2018-12-02T04:03:47.909Z,101.57
2018-12-02T04:06:15.886Z,102.20
2018-12-02T04:08:43.848Z,103.63
2018-12-02T04:11:11.888Z,98.20
2018-12-02T04:13:39.845Z,101.37
2018-12-02T04:16:07.813Z,104.43
2018-12-02T04:18:35.830Z,107.30
2018-12-02T04:21:03.826Z,104.07
2018-12-02T04:23:31.802Z,104.57
2018-12-02T04:25:59.801Z,103.37
2018-12-02T04:28:27.775Z,102.73
2018-12-02T04:30:55.724Z,106.73
2018-12-02T04:33:23.755Z,102.53
2018-12-02T04:35:51.761Z,101.17
2018-12-02T04:38:19.730Z,103.37
2018-12-02T04:40:47.745Z,103.67
2018-12-02T04:43:15.759Z,103.47
2018-12-02T04:45:43.735Z,101.03
2018-12-02T04:48:11.756Z,97.90
2018-12-02T04:50:39.729Z,104.90
2018-12-02T04:53:07.725Z,102.33
2018-12-02T04:55:35.747Z,97.33
2018-12-02T04:58:03.782Z,101.37
2018-12-02T05:00:31.786Z,95.93
2018-12-02T05:02:59.814Z,92.63
2018-12-02T05:05:27.759Z,99.33
2018-12-02T05:07:55.707Z,92.13
2018-12-02T05:10:23.723Z,98.53
2018-12-02T05:12:51.764Z,96.97
2018-12-02T05:15:20.571Z,96.80
2018-12-02T05:17:48.621Z,94.83
2018-12-02T05:20:17.517Z,96.03
2018-12-02T05:22:45.517Z,94.93
2018-12-02T05:25:17.574Z,92.03
2018-12-02T05:27:42.858Z,92.13
2018-12-02T05:30:11.627Z,89.33
2018-12-02T05:32:39.961Z,98.57
2018-12-02T05:35:08.805Z,97.13
2018-12-02T05:37:36.790Z,96.77
2018-12-02T05:40:08.270Z,94.80
2018-12-02T05:42:36.265Z,95.97
2018-12-02T05:45:04.893Z,91.43
2018-12-02T05:47:32.864Z,98.43
2018-12-02T05:50:00.815Z,96.97
2018-12-02T05:52:28.809Z,96.63
2018-12-02T05:54:56.827Z,95.47
2018-12-02T05:57:24.822Z,95.00
2018-12-02T05:59:52.784Z,93.63
2018-12-02T06:02:20.842Z,92.70
2018-12-02T06:04:48.804Z,97.77
2018-12-02T06:07:16.794Z,99.80
2018-12-02T06:09:44.796Z,97.63
2018-12-02T06:12:12.741Z,91.40
2018-12-02T06:14:40.733Z,94.50
2018-12-02T06:17:08.730Z,91.57
2018-12-02T06:19:36.698Z,97.47
2018-12-02T06:22:05.072Z,97.27
2018-12-02T06:24:33.076Z,98.27
2018-12-02T06:27:01.070Z,100.30
2018-12-02T06:29:29.053Z,95.23
2018-12-02T06:31:57.071Z,91.50
2018-12-02T06:34:25.052Z,95.73
2018-12-02T06:36:53.026Z,91.93
2018-12-02T06:39:21.075Z,96.90
2018-12-02T06:41:49.045Z,88.67
2018-12-02T06:44:17.001Z,90.80
2018-12-02T06:46:45.014Z,90.17
2018-12-02T06:49:13.013Z,90.07
2018-12-02T06:51:40.993Z,91.87
2018-12-02T06:54:08.994Z,90.10
2018-12-02T06:56:41.408Z,93.33
2018-12-02T06:59:47.843Z,84.83
2018-12-02T07:02:25.096Z,86.53
2018-12-02T07:04:53.097Z,86.47
2018-12-02T07:07:21.088Z,88.23
2018-12-02T07:09:49.070Z,86.67
2018-12-02T07:12:17.254Z,85.17
2018-12-02T07:14:45.230Z,91.97
2018-12-02T07:17:13.237Z,88.13
2018-12-02T07:19:45.126Z,87.10
2018-12-02T07:22:18.477Z,82.73
2018-12-02T07:24:47.196Z,81.87
2018-12-02T07:27:16.150Z,81.33
2018-12-02T07:29:44.155Z,82.90
2018-12-02T07:32:12.478Z,84.17
2018-12-02T07:34:40.484Z,82.57
2018-12-02T07:37:14.245Z,87.57
2018-12-02T07:40:52.146Z,87.73
2018-12-02T07:43:20.209Z,84.63
2018-12-02T07:45:48.188Z,87.03
2018-12-02T07:48:16.165Z,83.57
2018-12-02T07:50:44.192Z,90.67
2018-12-02T07:53:12.215Z,85.93
2018-12-02T07:55:40.202Z,83.00
2018-12-02T07:58:14.270Z,86.17
2018-12-02T08:00:42.554Z,78.30
2018-12-02T08:03:10.577Z,82.63
2018-12-02T08:05:38.607Z,83.83
2018-12-02T08:08:06.661Z,83.80
2018-12-02T08:10:34.650Z,82.53
2018-12-02T08:13:02.781Z,81.00
2018-12-02T08:15:30.854Z,76.97
2018-12-02T08:17:58.830Z,83.30
2018-12-02T08:20:26.928Z,81.00
2018-12-02T08:22:54.890Z,81.53
2018-12-02T08:25:22.869Z,85.93
2018-12-02T08:27:50.889Z,79.00
2018-12-02T08:30:21.801Z,78.33
2018-12-02T08:32:49.825Z,80.03
2018-12-02T08:35:19.069Z,77.73
2018-12-02T08:37:49.441Z,81.20
2018-12-02T08:40:17.491Z,84.80
2018-12-02T08:42:45.537Z,85.23
2018-12-02T08:45:17.466Z,81.07
2018-12-02T08:47:45.626Z,82.10
2018-12-02T08:50:16.618Z,78.10
2018-12-02T08:52:45.057Z,82.33
2018-12-02T08:55:14.353Z,79.40
2018-12-02T08:57:42.395Z,90.00
2018-12-02T09:00:14.801Z,82.87
2018-12-02T09:02:43.893Z,84.63
2018-12-02T09:05:13.077Z,87.07
2018-12-02T09:07:41.209Z,80.90
2018-12-02T09:10:16.709Z,79.43
2018-12-02T09:12:44.815Z,81.40
2018-12-02T09:15:12.875Z,84.23
2018-12-02T09:17:40.875Z,79.60
2018-12-02T09:20:17.289Z,77.93
2018-12-02T09:22:45.367Z,64.13
2018-12-02T09:25:13.410Z,85.20
2018-12-02T09:27:41.465Z,86.00
2018-12-02T09:30:18.245Z,84.37
2018-12-02T09:32:46.314Z,87.33
2018-12-02T09:35:14.406Z,85.03
2018-12-02T09:37:42.415Z,83.93
2018-12-02T09:40:13.385Z,83.00
2018-12-02T09:42:42.622Z,78.60
2018-12-02T09:45:13.116Z,76.37
2018-12-02T09:47:41.181Z,77.70
2018-12-02T09:50:11.357Z,70.90
2018-12-02T09:52:39.370Z,80.53
2018-12-02T09:55:16.309Z,75.80
2018-12-02T09:57:44.313Z,78.20
2018-12-02T10:00:15.926Z,71.63
2018-12-02T10:02:43.973Z,70.63
2018-12-02T10:05:12.060Z,65.67
2018-12-02T10:07:40.044Z,65.37
2018-12-02T10:10:15.300Z,69.07
2018-12-02T10:12:47.434Z,66.07
2018-12-02T10:15:16.026Z,67.90
2018-12-02T10:17:44.048Z,65.00
2018-12-02T10:20:14.884Z,65.53
2018-12-02T10:22:43.436Z,62.17
2018-12-02T10:25:13.417Z,68.70
2018-12-02T10:27:41.370Z,63.17
2018-12-02T10:30:17.530Z,62.13
2018-12-02T10:32:45.513Z,61.40
2018-12-02T10:35:13.593Z,63.07
2018-12-02T10:37:41.577Z,62.80
2018-12-02T10:40:14.622Z,61.50
2018-12-02T10:42:42.634Z,62.40
2018-12-02T10:45:22.399Z,60.73
2018-12-02T10:47:53.300Z,54.07
2018-12-02T10:50:24.513Z,57.80
2018-12-02T10:52:53.786Z,52.17
2018-12-02T10:55:55.750Z,53.67
2018-12-02T10:58:26.549Z,52.57
2018-12-02T11:01:02.249Z,52.57
2018-12-02T11:03:30.910Z,50.57
2018-12-02T11:05:58.957Z,51.73
2018-12-02T11:08:26.975Z,52.00
2018-12-02T11:10:55.006Z,55.53
2018-12-02T11:13:23.018Z,52.70
2018-12-02T11:15:51.033Z,52.60
2018-12-02T11:18:19.129Z,51.37
2018-12-02T11:20:47.175Z,51.33
2018-12-02T11:23:15.193Z,53.77
2018-12-02T11:25:43.207Z,49.70
2018-12-02T11:28:11.301Z,51.33
2018-12-02T11:30:39.476Z,50.87
2018-12-02T11:33:07.883Z,49.07
2018-12-02T11:35:35.887Z,50.37
2018-12-02T11:38:04.049Z,47.70
2018-12-02T11:40:32.063Z,47.70
2018-12-02T11:43:00.064Z,46.77
2018-12-02T11:45:28.071Z,41.70
2018-12-02T11:47:56.089Z,40.90
2018-12-02T11:50:25.899Z,40.77
2018-12-02T11:52:53.855Z,47.40
2018-12-02T11:55:22.564Z,43.27
2018-12-02T11:57:50.697Z,35.70
2018-12-02T12:00:27.341Z,39.97
2018-12-02T12:02:56.378Z,35.20
2018-12-02T12:05:24.441Z,34.17
2018-12-02T12:07:52.506Z,35.17
2018-12-02T12:10:21.597Z,37.13
2018-12-02T12:12:50.566Z,35.63
2018-12-02T12:15:19.755Z,35.47
2018-12-02T12:17:47.812Z,33.93
2018-12-02T12:20:23.043Z,30.10
2018-12-02T12:22:51.067Z,32.80
2018-12-02T12:25:19.081Z,35.07
2018-12-02T12:27:47.256Z,35.50
2018-12-02T12:30:17.653Z,34.63
2018-12-02T12:32:45.711Z,35.80
2018-12-02T12:35:14.933Z,35.47
2018-12-02T12:37:43.029Z,39.50
2018-12-02T12:40:14.123Z,37.90
2018-12-02T12:42:43.665Z,38.60
2018-12-02T12:45:12.965Z,39.90
2018-12-02T12:47:41.841Z,37.17
2018-12-02T12:50:11.489Z,36.63
2018-12-02T12:52:39.695Z,36.93
2018-12-02T12:55:09.689Z,36.00
2018-12-02T12:57:37.801Z,38.20
2018-12-02T13:00:13.863Z,41.10
2018-12-02T13:02:42.173Z,39.67
2018-12-02T13:05:11.777Z,42.00
2018-12-02T13:07:39.822Z,45.03
2018-12-02T13:10:11.164Z,43.13
2018-12-02T13:12:39.369Z,40.17
2018-12-02T13:15:13.468Z,41.93
2018-12-02T13:17:42.693Z,42.50
2018-12-02T13:20:12.181Z,42.60
2018-12-02T13:22:40.268Z,38.83
2018-12-02T13:25:09.995Z,39.47
2018-12-02T13:27:38.055Z,38.73
2018-12-02T13:30:17.940Z,41.20
2018-12-02T13:32:49.180Z,41.27
2018-12-02T13:35:17.263Z,39.07
2018-12-02T13:37:45.353Z,42.80
2018-12-02T13:40:17.409Z,40.67
2018-12-02T13:42:47.816Z,41.50
2018-12-02T13:45:18.118Z,44.17
2018-12-02T13:47:46.136Z,43.10
2018-12-02T13:50:16.297Z,42.27
2018-12-02T13:52:44.755Z,42.20
2018-12-02T13:55:16.936Z,40.87
2018-12-02T13:57:45.523Z,40.57
2018-12-02T14:00:18.623Z,40.53
2018-12-02T14:02:48.207Z,36.70
2018-12-02T14:05:16.313Z,40.17
2018-12-02T14:07:44.366Z,39.83
2018-12-02T14:10:13.543Z,39.60
2018-12-02T14:12:43.023Z,39.57
2018-12-02T14:15:31.115Z,39.13
2018-12-02T14:18:03.829Z,40.07
2018-12-02T14:20:31.909Z,38.20
2018-12-02T14:22:59.978Z,40.70
2018-12-02T14:25:28.047Z,39.40
2018-12-02T14:27:56.165Z,37.47
2018-12-02T14:30:24.207Z,39.60
2018-12-02T14:32:52.678Z,38.30
2018-12-02T14:35:20.774Z,38.93
2018-12-02T14:37:50.882Z,35.77
2018-12-02T14:40:20.741Z,38.07
2018-12-02T14:42:48.781Z,38.47
2018-12-02T14:45:18.320Z,36.03
2018-12-02T14:47:46.801Z,36.50
2018-12-02T14:50:16.569Z,41.07
2018-12-02T14:52:46.846Z,36.63
2018-12-02T14:55:16.300Z,35.57
2018-12-02T14:57:44.391Z,37.40
2018-12-02T15:00:15.497Z,39.13
2018-12-02T15:02:43.657Z,39.73
2018-12-02T15:05:13.556Z,36.17
2018-12-02T15:07:42.569Z,36.20
2018-12-02T15:10:12.837Z,38.77
2018-12-02T15:12:40.965Z,34.20
2018-12-02T15:15:12.223Z,34.60
2018-12-02T15:17:40.291Z,34.90
2018-12-02T15:20:12.041Z,36.77
2018-12-02T15:22:40.104Z,35.40
2018-12-02T15:25:09.855Z,29.33
2018-12-02T15:27:37.953Z,34.90
2018-12-02T15:30:10.282Z,33.70
2018-12-02T15:32:38.374Z,32.83
2018-12-02T15:35:07.510Z,32.27
2018-12-02T15:37:35.565Z,32.00
2018-12-02T15:40:03.809Z,33.27
2018-12-02T15:42:31.840Z,35.70
2018-12-02T15:44:59.935Z,25.30
2018-12-02T15:47:28.020Z,32.17
2018-12-02T15:49:56.097Z,34.90
2018-12-02T15:52:24.179Z,32.60
2018-12-02T15:54:52.312Z,36.87
2018-12-02T15:57:20.350Z,33.30
2018-12-02T15:59:48.394Z,38.97
2018-12-02T16:02:16.508Z,27.40
2018-12-02T16:04:44.554Z,35.77
2018-12-02T16:07:12.578Z,35.53
2018-12-02T16:09:40.594Z,35.63
2018-12-02T16:12:08.690Z,34.97
2018-12-02T16:14:36.716Z,35.87
2018-12-02T16:17:04.987Z,36.20
2018-12-02T16:19:33.047Z,37.07
2018-12-02T16:22:01.066Z,36.37
2018-12-02T16:24:29.130Z,33.70
2018-12-02T16:26:57.138Z,37.23
2018-12-02T16:29:25.207Z,38.90
2018-12-02T16:31:53.317Z,37.70
2018-12-02T16:34:21.617Z,41.17
2018-12-02T16:36:49.409Z,29.50
2018-12-02T16:39:17.484Z,37.03
2018-12-02T16:41:45.564Z,34.73
2018-12-02T16:44:13.617Z,32.60
2018-12-02T16:46:43.607Z,30.87
2018-12-02T16:49:11.629Z,33.57
2018-12-02T16:51:39.654Z,34.10
2018-12-02T16:54:07.789Z,38.20
2018-12-02T16:56:36.576Z,33.90
2018-12-02T16:59:17.170Z,36.47
2018-12-02T17:01:48.133Z,38.00
2018-12-02T17:04:16.314Z,36.20
2018-12-02T17:06:44.444Z,36.73
2018-12-02T17:09:12.973Z,33.87
2018-12-02T17:11:41.879Z,33.70
2018-12-02T17:14:09.959Z,35.20
2018-12-02T17:16:37.994Z,32.70
2018-12-02T17:19:07.047Z,33.33
2018-12-02T17:21:35.202Z,40.17
2018-12-02T17:24:03.419Z,41.07
2018-12-02T17:26:31.437Z,31.63
2018-12-02T17:29:00.342Z,36.93
2018-12-02T17:31:31.086Z,33.70
2018-12-02T17:33:59.116Z,35.40
2018-12-02T17:36:27.141Z,30.93
2018-12-02T17:38:58.362Z,30.93
2018-12-02T17:41:26.412Z,32.13
2018-12-02T17:43:54.396Z,30.67
2018-12-02T17:46:22.416Z,31.13
2018-12-02T17:48:50.438Z,30.63
2018-12-02T17:51:18.515Z,33.40
2018-12-02T17:53:46.526Z,32.40
2018-12-02T17:56:14.571Z,32.07
2018-12-02T17:58:42.574Z,31.13
2018-12-02T18:01:10.580Z,29.87
2018-12-02T18:03:39.680Z,32.20
2018-12-02T18:06:10.000Z,31.60
2018-12-02T18:08:37.961Z,30.00
2018-12-02T18:11:05.993Z,30.77
2018-12-02T18:13:36.550Z,34.87
2018-12-02T18:16:04.112Z,33.27
2018-12-02T18:18:32.249Z,29.57
2018-12-02T18:21:00.211Z,31.27
2018-12-02T18:23:28.202Z,30.03
2018-12-02T18:25:56.300Z,31.60
2018-12-02T18:28:24.294Z,37.63
2018-12-02T18:30:52.328Z,31.97
2018-12-02T18:33:20.419Z,33.17
2018-12-02T18:36:56.866Z,34.97
2018-12-02T18:39:24.896Z,35.07
2018-12-02T18:41:54.085Z,37.73
2018-12-02T18:44:22.101Z,35.00
2018-12-02T18:46:50.145Z,33.20
2018-12-02T18:49:18.184Z,36.63
2018-12-02T18:51:48.130Z,33.47
2018-12-02T18:54:16.176Z,31.63
2018-12-02T18:56:44.256Z,31.03
2018-12-02T18:59:13.860Z,27.77
2018-12-02T19:01:41.978Z,30.17
2018-12-02T19:04:09.978Z,29.20
2018-12-02T19:06:38.166Z,30.27
2018-12-02T19:09:09.735Z,28.33
2018-12-02T19:11:37.802Z,28.10
2018-12-02T19:14:05.900Z,26.90
2018-12-02T19:16:33.998Z,28.63
2018-12-02T19:19:02.011Z,26.07
2018-12-02T19:21:30.887Z,29.27
2018-12-02T19:23:59.468Z,27.83
2018-12-02T19:26:27.952Z,26.27
2018-12-02T19:28:55.968Z,26.53
2018-12-02T19:31:23.962Z,30.57
2018-12-02T19:33:53.920Z,31.57
2018-12-02T19:36:30.445Z,30.30
2018-12-02T19:38:58.434Z,30.30
2018-12-02T19:41:26.438Z,30.17
2018-12-02T19:43:54.478Z,28.33
2018-12-02T19:46:22.518Z,28.90
2018-12-02T19:48:50.543Z,27.53
2018-12-02T19:51:18.570Z,28.50
2018-12-02T19:53:46.588Z,27.60
2018-12-02T19:56:14.609Z,30.40
2018-12-02T19:58:42.610Z,29.37
2018-12-02T20:01:10.682Z,31.83
2018-12-02T20:03:38.645Z,30.27
2018-12-02T20:06:06.746Z,31.27
2018-12-02T20:08:34.804Z,31.47
2018-12-02T20:11:02.872Z,32.33
2018-12-02T20:13:30.933Z,30.70
2018-12-02T20:16:04.516Z,28.67
2018-12-02T20:18:32.757Z,28.43
2018-12-02T20:21:01.271Z,28.80
2018-12-02T20:23:34.873Z,28.20
2018-12-02T20:26:04.326Z,30.30
2018-12-02T20:28:50.745Z,28.57
2018-12-02T20:31:20.859Z,30.20
2018-12-02T20:33:48.924Z,30.63
2018-12-02T20:36:17.008Z,31.67
2018-12-02T20:38:45.077Z,27.70
2018-12-02T20:41:13.109Z,26.67
2018-12-02T20:43:41.113Z,29.27
2018-12-02T20:46:09.129Z,29.40
2018-12-02T20:48:37.127Z,29.27
2018-12-02T20:51:05.284Z,32.93
2018-12-02T20:53:33.295Z,32.13
2018-12-02T20:56:01.310Z,30.37
2018-12-02T20:58:29.377Z,32.03
2018-12-02T21:00:57.443Z,30.07
2018-12-02T21:03:27.353Z,32.37
2018-12-02T21:06:26.146Z,28.60
2018-12-02T21:08:54.218Z,31.47
2018-12-02T21:11:22.260Z,29.70
2018-12-02T21:13:50.393Z,30.07
2018-12-02T21:16:18.585Z,31.37
2018-12-02T21:18:46.633Z,31.47
2018-12-02T21:21:14.713Z,30.87
2018-12-02T21:23:42.777Z,33.57
2018-12-02T21:26:11.357Z,31.20
2018-12-02T21:28:40.312Z,32.97
2018-12-02T21:31:08.314Z,33.93
2018-12-02T21:33:36.295Z,32.07
2018-12-02T21:36:04.729Z,33.43
2018-12-02T21:38:32.746Z,33.67
2018-12-02T21:41:00.756Z,35.73
2018-12-02T21:43:28.758Z,37.23
2018-12-02T21:45:56.777Z,35.30
2018-12-02T21:48:24.766Z,35.03
2018-12-02T21:50:54.395Z,33.20
2018-12-02T21:53:22.393Z,33.60
2018-12-02T21:55:50.446Z,36.60
2018-12-02T21:58:18.481Z,34.20
2018-12-02T22:00:52.227Z,33.77
2018-12-02T22:03:20.281Z,36.30
2018-12-02T22:05:48.993Z,36.97
2018-12-02T22:08:17.173Z,37.73
2018-12-02T22:10:45.448Z,37.67
2018-12-02T22:13:13.483Z,38.73
2018-12-02T22:15:41.483Z,34.40
2018-12-02T22:18:09.519Z,35.77
2018-12-02T22:20:37.497Z,36.40
2018-12-02T22:23:05.610Z,35.90
2018-12-02T22:25:33.621Z,36.77
2018-12-02T22:28:01.642Z,36.47
2018-12-02T22:30:29.649Z,37.07
2018-12-02T22:32:57.676Z,35.57
2018-12-02T22:35:25.719Z,32.67
2018-12-02T22:37:53.705Z,36.43
2018-12-02T22:40:23.644Z,36.03
2018-12-02T22:42:53.591Z,37.00
2018-12-02T22:45:23.641Z,35.53
2018-12-02T22:47:51.714Z,37.50
2018-12-02T22:50:20.678Z,37.30
2018-12-02T22:52:49.924Z,35.00
2018-12-02T22:55:17.960Z,33.40
2018-12-02T22:57:45.976Z,35.07
2018-12-02T23:01:26.604Z,35.33
2018-12-02T23:03:54.654Z,31.60
2018-12-02T23:06:22.817Z,34.57
2018-12-02T23:08:50.994Z,34.87
2018-12-02T23:11:19.004Z,36.37
2018-12-02T23:13:47.006Z,37.47
2018-12-02T23:16:14.998Z,37.57
2018-12-02T23:18:43.008Z,34.50
2018-12-02T23:21:11.020Z,36.33
2018-12-02T23:23:39.054Z,35.93
2018-12-02T23:26:07.170Z,36.60
2018-12-02T23:28:35.176Z,35.70
2018-12-02T23:31:03.256Z,34.10
2018-12-02T23:33:31.294Z,34.27
2018-12-02T23:35:59.417Z,33.13
2018-12-02T23:38:27.455Z,34.73
2018-12-02T23:40:55.480Z,32.47
2018-12-02T23:43:23.519Z,36.77
2018-12-02T23:45:51.588Z,33.33
2018-12-02T23:48:19.560Z,33.57
2018-12-02T23:50:47.585Z,32.50
2018-12-02T23:53:15.603Z,31.43
2018-12-02T23:55:43.596Z,35.40
2018-12-02T23:58:11.653Z,33.83
